Time;durP1;ratioP1;P1;durP2;ratioP2;P2;SDS_P1;SDS_P2;PMS_P1;PMS_P2;Temp;Humidity;BMP_temperature;BMP_pressure;BME280_temperature;BME280_humidity;BME280_pressure;Samples;Min_cycle;Max_cycle;Signal;HPM_P1;HPM_P2
2022/09/18 00:03:54;;;;;;;8.85;1.23;;;11.00;99.90;;;;;;7371102;32;20127;-59
2022/09/18 00:07:55;;;;;;;5.90;0.90;;;11.00;99.90;;;;;;7361467;32;20501;-60
2022/09/18 00:11:58;;;;;;;11.25;1.35;;;11.10;99.90;;;;;;7365906;32;20193;-59
2022/09/18 00:16:01;;;;;;;6.87;0.77;;;11.10;99.90;;;;;;7361880;32;20099;-60
2022/09/18 00:20:03;;;;;;;6.50;1.05;;;11.00;99.90;;;;;;7361486;32;20152;-59
2022/09/18 00:24:05;;;;;;;7.97;1.90;;;11.10;99.90;;;;;;7365890;32;20141;-59
2022/09/18 00:28:07;;;;;;;10.45;1.37;;;11.10;99.90;;;;;;7370280;32;20104;-59
2022/09/18 00:32:08;;;;;;;7.05;1.30;;;11.10;99.90;;;;;;7366508;32;20118;-59
2022/09/18 00:36:16;;;;;;;9.35;1.85;;;11.20;99.90;;;;;;7362875;32;20613;-59
2022/09/18 00:40:18;;;;;;;6.65;1.27;;;11.20;99.90;;;;;;7364444;32;20141;-59
2022/09/18 00:44:37;;;;;;;7.87;1.50;;;11.00;99.90;;;;;;7365030;32;20365;-59
2022/09/18 00:49:07;;;;;;;6.30;1.40;;;11.10;99.90;;;;;;7363950;32;20121;-59
2022/09/18 00:53:09;;;;;;;10.55;1.77;;;11.10;99.90;;;;;;7367963;32;20107;-59
2022/09/18 00:57:33;;;;;;;8.80;1.35;;;11.10;99.90;;;;;;7366404;32;20158;-60
2022/09/18 01:01:35;;;;;;;5.50;1.02;;;11.20;99.90;;;;;;7365579;32;20099;-60
2022/09/18 01:05:59;;;;;;;6.00;1.20;;;11.10;99.90;;;;;;7363060;32;20148;-59
2022/09/18 01:10:26;;;;;;;12.52;1.60;;;11.10;99.90;;;;;;7367456;32;20650;-59
2022/09/18 01:14:43;;;;;;;6.87;1.50;;;11.10;99.90;;;;;;7364675;32;20180;-59
2022/09/18 01:18:55;;;;;;;8.88;1.35;;;11.10;99.90;;;;;;7364196;32;20546;-59
2022/09/18 01:23:23;;;;;;;12.73;1.77;;;11.10;99.90;;;;;;7361903;32;20891;-59
2022/09/18 01:27:39;;;;;;;;;;;11.20;99.90;;;;;;7360363;32;20108;-59
2022/09/18 01:31:46;;;;;;;8.30;1.23;;;11.20;99.90;;;;;;7363496;32;20474;-60
2022/09/18 01:35:53;;;;;;;7.30;1.48;;;11.10;99.90;;;;;;7363582;32;20095;-59
2022/09/18 01:40:11;;;;;;;6.87;1.50;;;11.10;99.90;;;;;;7370885;32;20094;-59
2022/09/18 01:44:16;;;;;;;8.18;1.48;;;11.10;99.90;;;;;;7366743;32;20145;-59
2022/09/18 01:48:27;;;;;;;8.05;1.30;;;11.00;99.90;;;;;;7368740;32;20190;-59
2022/09/18 01:52:35;;;;;;;7.05;1.40;;;11.00;99.90;;;;;;7360920;32;20119;-59
2022/09/18 01:56:43;;;;;;;7.45;1.15;;;11.00;99.90;;;;;;7363496;32;20481;-59
2022/09/18 02:00:58;;;;;;;6.75;1.10;;;11.00;99.90;;;;;;7364359;32;20111;-59
2022/09/18 02:05:06;;;;;;;5.22;1.17;;;11.00;99.90;;;;;;7360530;32;20107;-59
2022/09/18 02:09:10;;;;;;;3.25;0.82;;;11.00;99.90;;;;;;7366148;32;20256;-59
2022/09/18 02:13:16;;;;;;;8.82;1.20;;;11.00;99.90;;;;;;7367863;32;20137;-59
2022/09/18 02:17:32;;;;;;;4.80;1.07;;;11.00;99.90;;;;;;7362932;32;20193;-59
2022/09/18 02:21:35;;;;;;;8.82;1.10;;;11.00;99.90;;;;;;7357465;32;20112;-59
2022/09/18 02:25:47;;;;;;;4.50;0.93;;;11.00;99.90;;;;;;7360846;32;20090;-59
2022/09/18 02:29:50;;;;;;;6.82;1.10;;;11.00;99.90;;;;;;7363598;32;20217;-60
2022/09/18 02:33:52;;;;;;;8.18;1.50;;;11.00;99.90;;;;;;7358343;32;20122;-59
2022/09/18 02:38:07;;;;;;;5.20;1.20;;;11.00;99.90;;;;;;7364703;32;20128;-59
2022/09/18 02:42:15;;;;;;;6.93;1.08;;;11.00;99.90;;;;;;7367818;32;20113;-60
2022/09/18 02:46:39;;;;;;;4.50;0.98;;;11.00;99.90;;;;;;7363069;32;20151;-59
2022/09/18 02:51:07;;;;;;;5.72;1.15;;;11.00;99.90;;;;;;7365545;32;20208;-59
2022/09/18 02:55:20;;;;;;;4.43;1.35;;;11.00;99.90;;;;;;7364350;32;20189;-59
2022/09/18 02:59:35;;;;;;;8.90;2.00;;;11.00;99.90;;;;;;7364475;32;20602;-60
2022/09/18 03:03:38;;;;;;;9.35;1.55;;;11.00;99.90;;;;;;7358489;32;20123;-59
2022/09/18 03:07:39;;;;;;;6.87;1.70;;;11.10;99.90;;;;;;7363449;32;20197;-60
2022/09/18 03:11:41;;;;;;;5.15;1.95;;;11.00;99.90;;;;;;7364944;32;20138;-59
2022/09/18 03:15:43;;;;;;;8.30;1.83;;;11.10;99.90;;;;;;7364132;32;20123;-59
2022/09/18 03:19:45;;;;;;;9.70;2.08;;;11.00;99.90;;;;;;7362994;32;20224;-59
2022/09/18 03:23:46;;;;;;;8.13;2.15;;;11.00;99.90;;;;;;7368509;32;20139;-59
2022/09/18 03:27:53;;;;;;;7.22;1.95;;;11.10;99.90;;;;;;7368315;32;20182;-59
2022/09/18 03:31:54;;;;;;;5.82;1.98;;;11.10;99.90;;;;;;7373327;32;20126;-59
2022/09/18 03:35:56;;;;;;;8.32;2.22;;;11.00;99.90;;;;;;7365682;32;20712;-59
2022/09/18 03:39:58;;;;;;;4.90;2.03;;;11.10;99.90;;;;;;7370232;32;20197;-59
2022/09/18 03:44:00;;;;;;;7.05;2.05;;;11.00;99.90;;;;;;7365779;32;20127;-59
2022/09/18 03:48:03;;;;;;;8.93;2.08;;;11.00;99.90;;;;;;7367496;32;20182;-59
2022/09/18 03:52:05;;;;;;;8.73;2.03;;;11.00;99.90;;;;;;7366802;32;20107;-59
2022/09/18 03:56:07;;;;;;;10.10;1.75;;;11.00;99.90;;;;;;7369295;32;20199;-59
2022/09/18 04:00:09;;;;;;;7.28;1.60;;;11.00;99.90;;;;;;7369767;32;20237;-59
2022/09/18 04:04:12;;;;;;;4.93;2.00;;;11.10;99.90;;;;;;7368946;32;20111;-59
2022/09/18 04:08:13;;;;;;;5.18;1.60;;;11.00;99.90;;;;;;7363165;32;20533;-58
2022/09/18 04:12:15;;;;;;;4.70;1.48;;;11.00;99.90;;;;;;7370923;32;20459;-59
2022/09/18 04:16:17;;;;;;;5.80;1.90;;;10.90;99.90;;;;;;7368290;32;20134;-60
2022/09/18 04:20:19;;;;;;;6.50;1.90;;;10.90;99.90;;;;;;7369135;32;20206;-60
2022/09/18 04:24:20;;;;;;;5.12;1.45;;;10.90;99.90;;;;;;7365288;32;20117;-60
2022/09/18 04:28:23;;;;;;;4.12;1.70;;;10.90;99.90;;;;;;7371260;32;20142;-61
2022/09/18 04:32:25;;;;;;;6.55;1.87;;;10.90;99.90;;;;;;7363129;32;20134;-60
2022/09/18 04:36:26;;;;;;;5.70;1.60;;;10.90;99.90;;;;;;7364140;32;20107;-60
2022/09/18 04:40:28;;;;;;;6.55;1.75;;;10.90;99.90;;;;;;7366801;32;20189;-60
2022/09/18 04:44:30;;;;;;;8.10;1.40;;;10.90;99.90;;;;;;7371429;32;20741;-61
2022/09/18 04:48:32;;;;;;;6.00;1.60;;;10.90;99.90;;;;;;7364554;32;20111;-60
2022/09/18 04:52:34;;;;;;;7.30;1.92;;;10.90;99.90;;;;;;7368695;32;20206;-60
2022/09/18 04:56:36;;;;;;;5.25;1.70;;;10.90;99.90;;;;;;7366833;32;20133;-60
2022/09/18 05:00:38;;;;;;;6.22;1.70;;;10.90;99.90;;;;;;7363399;32;20186;-60
2022/09/18 05:04:40;;;;;;;5.12;2.25;;;10.90;99.90;;;;;;7367536;32;20115;-60
2022/09/18 05:08:42;;;;;;;8.00;2.67;;;10.90;99.90;;;;;;7367153;32;20116;-61
2022/09/18 05:12:44;;;;;;;8.85;3.50;;;10.90;99.90;;;;;;7359316;32;20111;-60
2022/09/18 05:16:45;;;;;;;9.70;3.72;;;11.00;99.90;;;;;;7368364;32;20103;-60
2022/09/18 05:20:47;;;;;;;10.43;4.62;;;11.00;99.90;;;;;;7367985;32;20137;-61
2022/09/18 05:24:49;;;;;;;10.93;4.53;;;11.00;99.90;;;;;;7365772;32;20589;-59
2022/09/18 05:28:50;;;;;;;9.27;4.78;;;11.00;99.90;;;;;;7362927;32;20111;-60
2022/09/18 05:33:00;;;;;;;9.63;5.37;;;11.10;99.90;;;;;;7362595;32;20150;-59
2022/09/18 05:37:02;;;;;;;9.43;4.82;;;11.10;99.90;;;;;;7360405;32;20111;-60
2022/09/18 05:41:03;;;;;;;8.57;5.25;;;11.10;99.90;;;;;;7369035;32;20099;-60
2022/09/18 05:45:05;;;;;;;11.40;4.95;;;11.20;99.90;;;;;;7362791;32;20133;-60
2022/09/18 05:49:07;;;;;;;9.45;4.93;;;11.10;99.90;;;;;;7363587;32;20153;-60
2022/09/18 05:53:14;;;;;;;7.18;4.43;;;11.10;99.90;;;;;;7360413;32;20645;-60
2022/09/18 05:57:15;;;;;;;10.52;4.45;;;11.10;99.90;;;;;;7365872;32;20647;-59
2022/09/18 06:01:17;;;;;;;7.00;4.45;;;11.10;99.90;;;;;;7359707;32;20134;-61
2022/09/18 06:05:18;;;;;;;6.95;4.60;;;11.10;99.90;;;;;;7362130;32;20534;-63
2022/09/18 06:09:20;;;;;;;8.23;4.37;;;11.20;99.90;;;;;;7364493;32;20127;-60
2022/09/18 06:13:22;;;;;;;8.43;3.92;;;11.10;99.90;;;;;;7368791;32;20103;-59
2022/09/18 06:17:24;;;;;;;7.68;3.10;;;11.10;99.90;;;;;;7358870;32;20209;-59
2022/09/18 06:21:26;;;;;;;8.13;3.40;;;11.10;99.90;;;;;;7359632;32;20194;-63
2022/09/18 06:25:28;;;;;;;9.27;3.35;;;11.20;99.90;;;;;;7372626;32;20179;-62
2022/09/18 06:29:30;;;;;;;7.75;3.35;;;11.10;99.90;;;;;;7370993;32;20248;-63
2022/09/18 06:33:34;;;;;;;6.32;3.35;;;11.20;99.90;;;;;;7368860;32;20119;-63
2022/09/18 06:37:36;;;;;;;7.95;3.15;;;11.20;99.90;;;;;;7375649;32;20110;-63
2022/09/18 06:41:37;;;;;;;6.95;2.70;;;11.30;99.90;;;;;;7369028;32;20103;-63
2022/09/18 06:45:39;;;;;;;11.50;2.90;;;11.30;99.90;;;;;;7356935;32;20225;-64
2022/09/18 06:49:41;;;;;;;8.15;2.20;;;11.20;99.90;;;;;;7378344;32;20107;-64
2022/09/18 06:53:43;;;;;;;4.62;2.40;;;11.30;99.90;;;;;;7369094;32;20111;-63
2022/09/18 06:57:55;;;;;;;7.05;2.28;;;11.30;99.90;;;;;;7373801;32;20521;-63
2022/09/18 07:01:56;;;;;;;6.68;2.17;;;11.20;99.90;;;;;;7380511;32;20112;-63
2022/09/18 07:05:58;;;;;;;6.25;1.83;;;11.20;99.90;;;;;;7380018;32;20123;-63
2022/09/18 07:10:00;;;;;;;6.47;2.33;;;11.20;99.90;;;;;;7376012;32;20107;-63
2022/09/18 07:14:07;;;;;;;10.60;2.05;;;11.20;99.90;;;;;;7384439;32;20111;-63
2022/09/18 07:18:08;;;;;;;5.45;1.95;;;11.30;99.90;;;;;;7369510;32;20103;-63
2022/09/18 07:22:10;;;;;;;4.97;2.15;;;11.30;99.90;;;;;;7366458;32;20562;-63
2022/09/18 07:26:13;;;;;;;4.85;1.27;;;11.40;99.90;;;;;;7366577;32;20233;-63
2022/09/18 07:30:15;;;;;;;3.03;0.90;;;11.40;99.90;;;;;;7369028;32;20123;-63
2022/09/18 07:34:17;;;;;;;3.62;0.90;;;11.40;99.90;;;;;;7375720;32;20114;-63
2022/09/18 07:38:18;;;;;;;4.18;0.88;;;11.40;99.90;;;;;;7361399;32;20146;-60
2022/09/18 07:42:20;;;;;;;3.35;0.65;;;11.40;99.90;;;;;;7365390;32;20512;-64
2022/09/18 07:46:22;;;;;;;5.50;1.52;;;11.40;99.90;;;;;;7368686;32;20558;-64
2022/09/18 07:50:24;;;;;;;4.45;1.55;;;11.50;99.90;;;;;;7371905;32;20441;-64
2022/09/18 07:54:25;;;;;;;7.07;1.50;;;11.60;99.90;;;;;;7379598;32;20111;-64
2022/09/18 07:58:27;;;;;;;4.68;1.73;;;11.70;99.90;;;;;;7365845;32;20114;-64
2022/09/18 08:02:28;;;;;;;6.28;1.52;;;11.80;99.90;;;;;;7366077;32;20650;-63
2022/09/18 08:06:31;;;;;;;3.10;1.40;;;11.90;99.90;;;;;;7371330;32;20108;-63
2022/09/18 08:10:34;;;;;;;5.00;1.60;;;11.90;99.90;;;;;;7373552;32;20130;-63
2022/09/18 08:14:36;;;;;;;4.50;1.45;;;12.00;99.90;;;;;;7365616;32;20119;-60
2022/09/18 08:18:38;;;;;;;8.15;2.30;;;12.20;99.90;;;;;;7365586;32;20509;-60
2022/09/18 08:22:40;;;;;;;10.10;3.12;;;12.30;99.90;;;;;;7360524;32;20224;-63
2022/09/18 08:26:42;;;;;;;9.80;2.40;;;12.30;99.90;;;;;;7364668;32;20149;-66
2022/09/18 08:30:44;;;;;;;7.78;2.20;;;12.30;99.90;;;;;;7366272;32;20179;-65
2022/09/18 08:34:46;;;;;;;5.87;1.85;;;12.20;99.90;;;;;;7370728;32;20174;-64
2022/09/18 08:38:47;;;;;;;6.95;1.60;;;12.20;99.90;;;;;;7358976;32;20157;-62
2022/09/18 08:43:03;;;;;;;5.07;1.40;;;12.20;99.90;;;;;;7356982;32;20270;-62
2022/09/18 08:47:21;;;;;;;7.15;1.80;;;12.20;99.90;;;;;;7362135;32;20146;-62
2022/09/18 08:51:29;;;;;;;;;;;12.20;99.90;;;;;;7370800;32;20131;-61
2022/09/18 08:55:40;;;;;;;7.62;1.48;;;12.30;99.90;;;;;;7379152;31;20809;-62
2022/09/18 08:59:48;;;;;;;4.05;1.33;;;12.30;99.90;;;;;;7389998;32;20644;-62
2022/09/18 09:04:08;;;;;;;6.68;1.95;;;12.30;99.90;;;;;;7375452;32;20246;-63
2022/09/18 09:08:33;;;;;;;4.75;1.20;;;12.30;99.90;;;;;;7381821;32;20227;-62
2022/09/18 09:13:14;;;;;;;4.28;1.70;;;12.50;99.90;;;;;;7389382;32;20149;-62
2022/09/18 09:17:36;;;;;;;7.87;1.77;;;12.50;99.90;;;;;;7381415;32;20166;-61
2022/09/18 09:21:53;;;;;;;6.95;2.00;;;12.50;99.90;;;;;;7378159;32;20159;-61
2022/09/18 09:26:04;;;;;;;4.33;2.20;;;12.60;99.90;;;;;;7389817;32;20132;-62
2022/09/18 09:30:16;;;;;;;5.62;2.25;;;12.80;99.90;;;;;;7385547;32;20351;-62
2022/09/18 09:34:25;;;;;;;9.50;2.42;;;12.90;99.90;;;;;;7380040;32;20133;-62
2022/09/18 09:38:40;;;;;;;10.10;3.22;;;13.10;99.90;;;;;;7384629;31;20123;-63
2022/09/18 09:42:55;;;;;;;9.02;2.87;;;13.10;99.90;;;;;;7382619;32;20133;-61
2022/09/18 09:47:12;;;;;;;7.68;3.62;;;13.10;99.90;;;;;;7376360;32;20118;-61
2022/09/18 09:51:29;;;;;;;4.93;3.43;;;13.00;99.90;;;;;;7362542;32;20519;-60
2022/09/18 09:55:36;;;;;;;5.35;3.42;;;12.90;99.90;;;;;;7366000;32;20130;-61
2022/09/18 10:00:06;;;;;;;7.35;3.28;;;13.10;99.90;;;;;;7371479;32;20134;-61
2022/09/18 10:04:16;;;;;;;4.68;2.35;;;13.10;99.90;;;;;;7377264;32;20111;-61
2022/09/18 10:08:30;;;;;;;6.03;2.50;;;13.20;99.90;;;;;;7366053;32;20168;-61
2022/09/18 10:12:53;;;;;;;4.65;2.03;;;13.30;99.90;;;;;;7363594;32;20785;-62
2022/09/18 10:16:56;;;;;;;3.35;1.70;;;13.30;99.90;;;;;;7371853;32;20202;-62
2022/09/18 10:21:07;;;;;;;4.32;1.50;;;13.40;99.90;;;;;;7360526;32;20610;-63
2022/09/18 10:25:22;;;;;;;2.17;1.30;;;13.30;99.90;;;;;;7364761;32;20699;-62
2022/09/18 10:29:24;;;;;;;4.50;1.40;;;13.40;99.90;;;;;;7361227;32;20221;-62
2022/09/18 10:33:35;;;;;;;4.78;1.95;;;13.50;99.90;;;;;;7362296;32;20146;-62
2022/09/18 10:37:39;;;;;;;4.47;1.75;;;13.60;99.90;;;;;;7360939;32;20143;-61
2022/09/18 10:41:42;;;;;;;4.62;1.83;;;13.60;99.90;;;;;;7366907;32;20134;-61
2022/09/18 10:45:51;;;;;;;6.30;2.15;;;13.40;99.90;;;;;;7372598;32;20115;-61
2022/09/18 10:49:52;;;;;;;4.30;1.92;;;13.10;99.90;;;;;;7373777;32;20463;-61
2022/09/18 10:54:03;;;;;;;6.47;2.50;;;13.10;99.90;;;;;;7377189;32;20132;-61
2022/09/18 10:58:15;;;;;;;6.20;2.25;;;12.90;99.90;;;;;;7378192;32;20190;-62
2022/09/18 11:02:19;;;;;;;3.58;2.00;;;12.80;99.90;;;;;;7368040;32;20130;-61
2022/09/18 11:06:33;;;;;;;5.12;2.72;;;12.50;99.90;;;;;;7364511;32;20176;-62
2022/09/18 11:10:36;;;;;;;5.37;2.78;;;12.40;99.90;;;;;;7366997;32;20218;-61
2022/09/18 11:14:42;;;;;;;7.55;2.80;;;12.30;99.90;;;;;;7366698;32;20437;-62
2022/09/18 11:18:46;;;;;;;4.37;2.70;;;12.30;99.90;;;;;;7365179;32;20130;-62
2022/09/18 11:22:48;;;;;;;7.72;3.20;;;12.20;99.90;;;;;;7372030;32;20111;-62
2022/09/18 11:26:56;;;;;;;8.57;3.15;;;12.10;99.90;;;;;;7372843;32;20535;-63
2022/09/18 11:31:01;;;;;;;5.07;1.00;;;12.10;99.90;;;;;;7363319;32;20107;-65
2022/09/18 11:35:11;;;;;;;2.95;1.30;;;11.80;99.90;;;;;;7369030;32;20425;-63
2022/09/18 11:39:18;;;;;;;4.30;1.37;;;11.70;99.90;;;;;;7366973;32;20120;-64
2022/09/18 11:43:32;;;;;;;8.63;2.08;;;11.40;99.90;;;;;;7371346;32;20129;-63
2022/09/18 11:47:44;;;;;;;6.35;3.08;;;11.30;99.90;;;;;;7363005;32;20189;-63
2022/09/18 11:51:55;;;;;;;8.13;4.28;;;11.40;99.90;;;;;;7360215;32;20099;-63
2022/09/18 11:56:05;;;;;;;3.15;1.55;;;11.40;99.90;;;;;;7362131;32;20174;-63
2022/09/18 12:00:16;;;;;;;2.80;0.90;;;11.40;99.90;;;;;;7364724;32;20127;-63
2022/09/18 12:04:39;;;;;;;3.22;0.88;;;11.40;99.90;;;;;;7372432;32;20494;-61
2022/09/18 12:08:59;;;;;;;5.85;0.93;;;11.40;99.90;;;;;;7366060;32;20107;-61
2022/09/18 12:13:20;;;;;;;4.32;0.80;;;11.40;99.90;;;;;;7365716;32;20134;-61
2022/09/18 12:17:43;;;;;;;3.25;1.40;;;11.40;99.90;;;;;;7367043;32;20115;-63
2022/09/18 12:22:15;;;;;;;3.75;1.00;;;11.50;99.90;;;;;;7369700;32;20153;-60
2022/09/18 12:26:38;;;;;;;6.15;1.25;;;11.60;99.90;;;;;;7363673;32;20132;-62
2022/09/18 12:30:49;;;;;;;2.80;1.50;;;11.60;99.90;;;;;;7363236;32;20220;-64
2022/09/18 12:35:03;;;;;;;4.70;1.42;;;11.80;99.90;;;;;;7369587;32;20145;-63
2022/09/18 12:39:30;;;;;;;2.70;0.93;;;11.80;99.90;;;;;;7356435;32;20245;-63
2022/09/18 12:43:54;;;;;;;3.08;0.75;;;11.70;99.90;;;;;;7363890;32;20122;-63
2022/09/18 12:48:20;;;;;;;3.05;1.10;;;11.80;99.90;;;;;;7365827;32;20186;-63
2022/09/18 12:52:48;;;;;;;4.10;1.00;;;11.80;99.90;;;;;;7365045;32;20112;-63
2022/09/18 12:57:49;;;;;;;4.07;0.90;;;11.70;99.90;;;;;;7360486;32;20301;-64
2022/09/18 13:01:57;;;;;;;3.87;0.80;;;11.60;99.90;;;;;;7359519;32;20793;-65
2022/09/18 13:06:06;;;;;;;2.47;0.70;;;11.60;99.90;;;;;;7367296;32;20164;-62
2022/09/18 13:10:23;;;;;;;5.90;1.20;;;11.60;99.90;;;;;;7364370;32;20110;-57
2022/09/18 13:14:31;;;;;;;2.10;0.88;;;11.60;99.90;;;;;;7369714;32;20111;-56
2022/09/18 13:18:37;;;;;;;4.30;0.80;;;11.60;99.90;;;;;;7367467;32;20214;-55
2022/09/18 13:22:43;;;;;;;5.70;0.75;;;11.70;99.90;;;;;;7371375;32;20103;-56
2022/09/18 13:26:47;;;;;;;1.33;0.62;;;11.70;99.90;;;;;;7374382;32;20245;-57
2022/09/18 13:31:14;;;;;;;3.95;1.00;;;11.70;99.90;;;;;;7365852;32;20107;-64
2022/09/18 13:35:48;;;;;;;4.12;1.45;;;11.80;99.90;;;;;;7353841;32;20111;-64
2022/09/18 13:40:07;;;;;;;6.05;1.40;;;11.80;99.90;;;;;;7364428;32;20123;-67
2022/09/18 13:44:26;;;;;;;5.68;2.12;;;11.80;99.90;;;;;;7368359;32;20547;-65
2022/09/18 13:48:54;;;;;;;1.85;1.62;;;11.90;99.90;;;;;;7359158;32;20216;-66
2022/09/18 13:52:58;;;;;;;4.47;1.90;;;11.90;99.90;;;;;;7359038;32;20226;-64
2022/09/18 13:57:16;;;;;;;7.45;2.10;;;12.00;99.90;;;;;;7362942;32;20120;-63
2022/09/18 14:01:39;;;;;;;5.07;2.80;;;12.00;99.90;;;;;;7367051;32;20141;-64
2022/09/18 14:05:44;;;;;;;9.02;3.22;;;12.00;99.90;;;;;;7370630;32;20648;-64
2022/09/18 14:09:57;;;;;;;5.00;2.58;;;12.10;99.90;;;;;;7357970;32;20115;-63
2022/09/18 14:14:10;;;;;;;6.60;3.10;;;12.10;99.90;;;;;;7361893;32;20111;-64
2022/09/18 14:18:15;;;;;;;5.07;2.10;;;12.10;99.90;;;;;;7368510;32;20107;-64
2022/09/18 14:22:28;;;;;;;5.95;2.37;;;12.10;99.90;;;;;;7363139;32;20154;-65
2022/09/18 14:26:30;;;;;;;5.12;1.90;;;12.10;99.90;;;;;;7372051;32;20128;-65
2022/09/18 14:30:32;;;;;;;5.30;1.98;;;12.10;99.90;;;;;;7354476;32;20135;-66
2022/09/18 14:34:42;;;;;;;7.40;2.53;;;12.00;99.90;;;;;;7353961;32;20202;-64
2022/09/18 14:38:44;;;;;;;5.50;1.55;;;12.00;99.90;;;;;;7347124;32;20143;-64
2022/09/18 14:42:46;;;;;;;4.62;1.12;;;11.90;99.90;;;;;;7363216;32;20116;-62
2022/09/18 14:46:56;;;;;;;4.90;1.65;;;11.90;99.90;;;;;;7367996;32;20119;-63
2022/09/18 14:51:04;;;;;;;5.22;1.10;;;11.80;99.90;;;;;;7360518;32;20103;-63
2022/09/18 14:55:16;;;;;;;4.60;0.90;;;11.90;99.90;;;;;;7360079;32;20512;-64
2022/09/18 14:59:19;;;;;;;3.80;0.90;;;11.80;99.90;;;;;;7353671;32;20214;-64
2022/09/18 15:03:37;;;;;;;2.85;0.80;;;11.70;99.90;;;;;;7360561;32;20213;-63
2022/09/18 15:07:50;;;;;;;4.35;0.62;;;11.70;99.90;;;;;;7363350;32;20095;-63
2022/09/18 15:11:52;;;;;;;4.00;0.85;;;11.70;99.90;;;;;;7361123;32;20124;-63
2022/09/18 15:16:03;;;;;;;4.37;1.00;;;11.60;99.90;;;;;;7361601;32;20110;-63
2022/09/18 15:20:14;;;;;;;2.37;0.65;;;11.50;99.90;;;;;;7365178;32;20135;-62
2022/09/18 15:24:18;;;;;;;2.25;0.40;;;10.90;99.90;;;;;;7365713;32;20214;-58
2022/09/18 15:28:22;;;;;;;2.08;0.60;;;10.60;99.90;;;;;;7369985;32;20455;-66
2022/09/18 15:32:29;;;;;;;5.00;0.80;;;10.60;99.90;;;;;;7369234;32;20473;-63
2022/09/18 15:36:35;;;;;;;6.05;0.95;;;10.60;99.90;;;;;;7366796;32;20198;-66
2022/09/18 15:40:37;;;;;;;1.98;0.57;;;10.50;99.90;;;;;;7367679;32;20130;-65
2022/09/18 15:44:48;;;;;;;4.28;0.70;;;10.30;99.90;;;;;;7363150;32;20492;-62
2022/09/18 15:48:51;;;;;;;5.05;0.70;;;10.20;99.90;;;;;;7372225;32;20197;-62
2022/09/18 15:53:01;;;;;;;7.28;0.80;;;10.10;99.90;;;;;;7367377;32;20111;-62
2022/09/18 15:57:04;;;;;;;4.20;0.90;;;10.00;99.90;;;;;;7364321;32;20099;-62
2022/09/18 16:01:14;;;;;;;3.70;0.70;;;10.00;99.90;;;;;;7363512;32;20125;-61
2022/09/18 16:05:16;;;;;;;4.15;0.90;;;9.90;99.90;;;;;;7367871;32;20600;-64
2022/09/18 16:09:41;;;;;;;7.12;0.68;;;9.80;99.90;;;;;;7365468;32;20095;-62
2022/09/18 16:13:43;;;;;;;2.62;0.77;;;9.80;99.90;;;;;;7350281;32;20186;-61
2022/09/18 16:17:45;;;;;;;4.37;0.90;;;9.80;99.90;;;;;;7351834;32;20673;-62
2022/09/18 16:21:47;;;;;;;4.40;1.10;;;9.70;99.90;;;;;;7350877;32;20917;-61
2022/09/18 16:26:06;;;;;;;39.13;22.10;;;9.70;99.90;;;;;;7351134;32;20194;-62
2022/09/18 16:30:10;;;;;;;7.75;3.95;;;9.70;99.90;;;;;;7336020;32;20187;-62
2022/09/18 16:34:28;;;;;;;7.50;4.53;;;9.60;99.90;;;;;;7357157;32;20178;-63
2022/09/18 16:38:31;;;;;;;6.70;2.87;;;9.70;99.90;;;;;;7357321;32;20724;-63
2022/09/18 16:42:32;;;;;;;7.35;4.05;;;9.60;99.90;;;;;;7354243;32;20122;-63
2022/09/18 16:46:48;;;;;;;5.60;2.85;;;9.70;99.90;;;;;;7365630;32;20100;-64
2022/09/18 16:50:49;;;;;;;12.18;4.50;;;9.70;99.90;;;;;;7365302;32;20126;-63
2022/09/18 16:54:51;;;;;;;5.25;2.45;;;9.70;99.90;;;;;;7357745;32;20190;-62
2022/09/18 16:58:56;;;;;;;5.57;1.80;;;9.70;99.90;;;;;;7367528;32;20104;-61
2022/09/18 17:02:59;;;;;;;4.90;2.17;;;9.60;99.90;;;;;;7372133;32;20182;-62
2022/09/18 17:07:01;;;;;;;6.87;2.92;;;9.60;99.90;;;;;;7364715;32;20776;-62
2022/09/18 17:11:03;;;;;;;6.32;2.90;;;9.50;99.90;;;;;;7367126;32;20122;-62
2022/09/18 17:15:07;;;;;;;11.25;6.12;;;9.40;99.90;;;;;;7363000;32;20484;-62
2022/09/18 17:19:09;;;;;;;6.05;3.33;;;9.40;99.90;;;;;;7364995;32;20134;-62
2022/09/18 17:23:11;;;;;;;5.68;1.98;;;9.40;99.90;;;;;;7362493;32;20662;-62
2022/09/18 17:27:14;;;;;;;6.12;1.60;;;9.30;99.90;;;;;;7364644;32;20107;-62
2022/09/18 17:31:17;;;;;;;3.30;1.20;;;9.30;99.90;;;;;;7359198;32;20100;-61
2022/09/18 17:35:19;;;;;;;2.60;0.90;;;9.40;99.90;;;;;;7358679;32;20111;-61
2022/09/18 17:39:20;;;;;;;4.25;1.05;;;9.40;99.90;;;;;;7364839;32;20215;-64
2022/09/18 17:43:23;;;;;;;3.10;1.27;;;9.30;99.90;;;;;;7357844;32;20784;-63
2022/09/18 17:47:25;;;;;;;4.72;1.45;;;9.20;99.90;;;;;;7359850;32;20103;-65
2022/09/18 17:51:27;;;;;;;5.37;2.17;;;9.20;99.90;;;;;;7358720;32;20182;-61
2022/09/18 17:55:31;;;;;;;5.15;2.10;;;9.20;99.90;;;;;;7354697;32;20103;-64
2022/09/18 17:59:33;;;;;;;3.92;2.40;;;9.30;99.90;;;;;;7359605;32;20237;-62
2022/09/18 18:03:36;;;;;;;5.47;2.62;;;9.30;99.90;;;;;;7361232;32;20821;-62
2022/09/18 18:07:37;;;;;;;5.68;2.35;;;9.30;99.90;;;;;;7363854;32;20633;-63
2022/09/18 18:11:41;;;;;;;4.55;2.10;;;9.30;99.90;;;;;;7362234;32;20103;-66
2022/09/18 18:15:43;;;;;;;5.00;3.10;;;9.30;99.90;;;;;;7374435;32;20107;-64
2022/09/18 18:19:45;;;;;;;4.70;2.53;;;9.30;99.90;;;;;;7371267;32;20254;-63
2022/09/18 18:23:47;;;;;;;6.28;3.67;;;9.30;99.90;;;;;;7367185;32;20194;-62
2022/09/18 18:27:50;;;;;;;8.25;4.53;;;9.30;99.90;;;;;;7361066;32;20504;-63
2022/09/18 18:31:52;;;;;;;8.13;4.93;;;9.30;99.90;;;;;;7364592;32;20098;-62
2022/09/18 18:35:54;;;;;;;5.82;4.32;;;9.30;99.90;;;;;;7364205;32;20168;-64
2022/09/18 18:39:56;;;;;;;7.62;3.80;;;9.30;99.90;;;;;;7366214;32;20558;-63
2022/09/18 18:44:01;;;;;;;5.93;4.22;;;9.30;99.90;;;;;;7362976;32;20160;-64
2022/09/18 18:48:02;;;;;;;7.22;3.97;;;9.20;99.90;;;;;;7360674;32;20098;-61
2022/09/18 18:52:09;;;;;;;8.98;2.47;;;9.20;99.90;;;;;;7360881;32;20214;-65
2022/09/18 18:56:14;;;;;;;5.43;1.80;;;9.20;99.90;;;;;;7366842;32;20307;-66
2022/09/18 19:00:15;;;;;;;2.70;1.60;;;9.10;99.90;;;;;;7364503;32;20125;-63
2022/09/18 19:04:20;;;;;;;4.10;1.70;;;9.00;99.90;;;;;;7371427;32;20095;-63
2022/09/18 19:08:22;;;;;;;4.60;1.45;;;8.90;99.90;;;;;;7365773;32;20198;-64
2022/09/18 19:12:27;;;;;;;4.22;1.70;;;8.80;99.90;;;;;;7363778;32;20107;-63
2022/09/18 19:16:30;;;;;;;5.62;1.98;;;8.80;99.90;;;;;;7369995;32;20131;-63
2022/09/18 19:20:33;;;;;;;7.47;2.55;;;8.70;99.90;;;;;;7368674;32;20127;-64
2022/09/18 19:24:35;;;;;;;5.18;2.37;;;8.60;99.90;;;;;;7378204;32;20103;-64
2022/09/18 19:28:36;;;;;;;5.30;2.17;;;8.50;99.90;;;;;;7361943;32;20125;-63
2022/09/18 19:32:38;;;;;;;4.55;2.35;;;8.50;99.90;;;;;;7367251;32;20171;-63
2022/09/18 19:36:40;;;;;;;7.55;2.08;;;8.50;99.90;;;;;;7359928;32;20099;-64
2022/09/18 19:40:42;;;;;;;4.18;2.65;;;8.40;99.90;;;;;;7355178;32;20178;-63
2022/09/18 19:44:51;;;;;;;3.15;2.33;;;8.40;99.90;;;;;;7361032;32;20194;-63
2022/09/18 19:48:53;;;;;;;3.17;2.30;;;8.30;99.90;;;;;;7354747;32;20138;-63
2022/09/18 19:52:55;;;;;;;5.57;2.00;;;8.20;99.90;;;;;;7361597;32;21254;-63
2022/09/18 19:56:58;;;;;;;3.90;2.35;;;8.30;99.90;;;;;;7362798;32;20182;-66
2022/09/18 20:01:00;;;;;;;8.35;3.90;;;8.30;99.90;;;;;;7365767;32;20508;-64
2022/09/18 20:05:02;;;;;;;4.07;2.58;;;8.20;99.90;;;;;;7358503;32;20179;-64
2022/09/18 20:09:04;;;;;;;5.03;2.50;;;8.20;99.90;;;;;;7355773;32;20574;-63
2022/09/18 20:13:06;;;;;;;4.10;2.50;;;8.30;99.90;;;;;;7366047;32;20125;-63
2022/09/18 20:17:08;;;;;;;4.05;2.05;;;8.20;99.90;;;;;;7359414;32;20125;-63
2022/09/18 20:21:12;;;;;;;7.78;2.00;;;8.20;99.90;;;;;;7353958;32;20186;-62
2022/09/18 20:25:14;;;;;;;3.25;1.80;;;8.20;99.90;;;;;;7363793;32;20193;-62
2022/09/18 20:29:16;;;;;;;5.25;2.62;;;8.20;99.90;;;;;;7355659;32;20754;-62
2022/09/18 20:33:18;;;;;;;4.53;2.08;;;8.20;99.90;;;;;;7358098;32;20508;-63
2022/09/18 20:37:19;;;;;;;6.12;2.28;;;8.20;99.90;;;;;;7357202;32;20210;-62
2022/09/18 20:41:21;;;;;;;4.03;1.95;;;8.30;99.90;;;;;;7354833;32;20208;-62
2022/09/18 20:45:25;;;;;;;5.10;2.40;;;8.20;99.90;;;;;;7360146;32;20171;-62
2022/09/18 20:49:30;;;;;;;5.37;1.75;;;8.30;99.90;;;;;;7370247;32;20126;-62
2022/09/18 20:53:33;;;;;;;5.28;1.80;;;8.30;99.90;;;;;;7371321;32;20166;-62
2022/09/18 20:57:35;;;;;;;4.65;1.58;;;8.30;99.90;;;;;;7360732;32;20144;-63
2022/09/18 21:01:41;;;;;;;2.40;1.62;;;8.30;99.90;;;;;;7365613;32;20107;-63
2022/09/18 21:05:43;;;;;;;4.28;1.70;;;8.30;99.90;;;;;;7367268;32;20123;-63
2022/09/18 21:09:45;;;;;;;3.72;1.50;;;8.40;99.90;;;;;;7372975;32;20127;-62
2022/09/18 21:13:47;;;;;;;7.70;1.70;;;8.30;99.90;;;;;;7359064;32;20470;-61
2022/09/18 21:17:50;;;;;;;2.92;1.60;;;8.30;99.90;;;;;;7369227;32;20526;-62
2022/09/18 21:21:51;;;;;;;5.50;2.00;;;8.40;99.90;;;;;;7364770;32;20103;-60
2022/09/18 21:25:53;;;;;;;6.00;1.73;;;8.30;99.90;;;;;;7363823;32;20167;-62
2022/09/18 21:29:55;;;;;;;8.70;1.85;;;8.30;99.90;;;;;;7356779;32;20129;-60
2022/09/18 21:33:58;;;;;;;4.78;1.55;;;8.30;99.90;;;;;;7362126;32;20103;-60